Terminal Aerodrome Forecast
Issued by NWS

Home | Current Version | Previous Version | Graphics & Text | Print | Product List | Glossary On
Versions: 1 2 3 4 5 6 7 8 9 10 11 12 13 14 15 16 17 18 19 20 21 22 23 24 25
695
FTUS43 KBIS 170917 AAA
TAFJMS
TAF AMD
KJMS 170917Z 1709/1806 30015KT P6SM BKN025 BKN030
     FM171300 27006KT P6SM FEW150
     FM171900 24007KT P6SM FEW250
     FM172300 21006KT P6SM SCT250
     FM180300 15005KT P6SM BKN200=

USA.gov is the U.S. government's official web portal to all federal, state and local government web resources and services.